Time;durP1;ratioP1;P1;durP2;ratioP2;P2;SDS_P1;SDS_P2;PMS_P1;PMS_P2;Temp;Humidity;BMP_temperature;BMP_pressure;BME280_temperature;BME280_humidity;BME280_pressure;Samples;Min_cycle;Max_cycle;Signal;HPM_P1;HPM_P2
2023/09/03 00:00:43;;;;;;;6.80;5.17;;;;;;;21.25;66.04;97502.91;5074532;28;20704;-78
2023/09/03 00:03:10;;;;;;;9.97;5.83;;;;;;;21.19;66.32;97513.94;5088301;28;20668;-79
2023/09/03 00:05:47;;;;;;;6.40;5.20;;;;;;;21.27;65.83;97495.72;5089652;28;20188;-76
2023/09/03 00:08:14;;;;;;;9.30;5.37;;;;;;;21.34;65.74;97507.44;5090533;28;20192;-76
2023/09/03 00:10:41;;;;;;;7.07;5.80;;;;;;;21.25;66.37;97494.16;5072010;28;21025;-75
2023/09/03 00:13:09;;;;;;;7.23;5.50;;;;;;;21.02;67.57;97496.88;5089837;28;20224;-75
2023/09/03 00:15:39;;;;;;;7.93;5.67;;;;;;;21.10;67.12;97498.91;5071553;28;20190;-75
2023/09/03 00:18:10;;;;;;;10.73;5.37;;;;;;;21.02;67.12;97502.13;5089803;28;20681;-75
2023/09/03 00:20:53;;;;;;;6.73;5.80;;;;;;;20.77;68.20;97493.66;5090037;28;20275;-75
2023/09/03 00:23:21;;;;;;;5.83;5.00;;;;;;;21.01;67.53;97499.59;5055045;28;20616;-74
2023/09/03 00:25:48;;;;;;;10.63;6.27;;;;;;;21.03;67.50;97493.28;5072298;28;20188;-73
2023/09/03 00:28:18;;;;;;;8.33;5.60;;;;;;;20.79;68.04;97487.28;5089688;28;20284;-74
2023/09/03 00:30:59;;;;;;;6.80;5.50;;;;;;;20.55;69.08;97496.28;5070957;28;20660;-75
2023/09/03 00:33:30;;;;;;;9.50;6.10;;;;;;;20.76;68.62;97494.59;5071355;28;20223;-76
2023/09/03 00:36:01;;;;;;;7.60;5.50;;;;;;;20.49;69.02;97468.66;5088922;28;20284;-74
2023/09/03 00:38:28;;;;;;;7.10;5.47;;;;;;;20.69;68.92;97483.72;5054858;28;20319;-79
2023/09/03 00:40:55;;;;;;;7.40;5.90;;;;;;;20.64;68.85;97485.06;5070728;28;20307;-75
2023/09/03 00:43:23;;;;;;;9.40;6.53;;;;;;;20.42;69.67;97485.91;5089393;28;20199;-75
2023/09/03 00:45:51;;;;;;;7.07;5.60;;;;;;;20.27;70.57;97476.56;5088992;28;20672;-74
2023/09/03 00:48:28;;;;;;;8.57;6.17;;;;;;;20.56;69.43;97485.66;5089503;28;20192;-77
2023/09/03 00:51:02;;;;;;;6.83;6.07;;;;;;;20.63;69.18;97473.69;5072578;28;20192;-79
2023/09/03 00:53:33;;;;;;;8.27;6.70;;;;;;;20.57;69.72;97484.69;5088778;28;20239;-76
2023/09/03 00:56:01;;;;;;;7.70;6.23;;;;;;;20.10;70.91;97469.09;5089456;28;20189;-76
2023/09/03 00:58:28;;;;;;;9.93;6.80;;;;;;;19.65;72.19;97441.06;5089028;28;20184;-75
2023/09/03 01:00:57;;;;;;;9.00;6.70;;;;;;;19.78;72.44;97486.50;5054320;28;20565;-79
2023/09/03 01:03:26;;;;;;;8.03;6.27;;;;;;;19.38;74.36;97459.72;5070719;28;20181;-75
2023/09/03 01:05:53;;;;;;;9.87;7.43;;;;;;;19.61;73.46;97474.63;5088936;28;20207;-74
2023/09/03 01:08:21;;;;;;;7.77;6.70;;;;;;;19.93;72.99;97477.44;5089270;28;20705;-76
2023/09/03 01:11:11;;;;;;;9.77;6.87;;;;;;;19.72;73.76;97473.81;5070475;28;20196;-78
2023/09/03 01:14:05;;;;;;;11.77;6.70;;;;;;;19.73;73.71;97472.84;5088635;28;20223;-77
2023/09/03 01:16:40;;;;;;;9.87;6.73;;;;;;;19.84;73.32;97467.63;5070181;28;20193;-73
2023/09/03 01:19:52;;;;;;;8.67;6.50;;;;;;;19.78;73.67;97478.63;5088470;28;20713;-80
2023/09/03 01:22:54;;;;;;;10.00;7.37;;;;;;;19.59;74.38;97475.69;5010232;28;20193;-75
2023/09/03 01:25:39;;;;;;;9.00;6.60;;;;;;;19.54;74.72;97480.47;5050540;28;20188;-74
2023/09/03 01:28:25;;;;;;;7.60;5.73;;;;;;;19.47;74.79;97478.25;5070252;28;20265;-75
2023/09/03 01:30:57;;;;;;;9.67;6.60;;;;;;;19.45;74.78;97477.53;5070346;28;20215;-76
2023/09/03 01:33:29;;;;;;;8.17;6.23;;;;;;;19.65;74.05;97459.47;5088319;28;20247;-76
2023/09/03 01:35:59;;;;;;;10.57;6.67;;;;;;;19.86;73.60;97471.00;5088378;28;20226;-74
2023/09/03 01:38:26;;;;;;;7.97;6.37;;;;;;;19.84;73.74;97470.25;5070293;28;20206;-76
2023/09/03 01:40:59;;;;;;;7.87;6.63;;;;;;;19.77;73.65;97472.50;5088181;28;20192;-74
2023/09/03 01:43:27;;;;;;;12.07;6.30;;;;;;;19.68;74.17;97473.19;5088693;28;20269;-76
2023/09/03 01:46:26;;;;;;;9.27;7.00;;;;;;;19.69;74.66;97472.25;5069863;28;20290;-76
2023/09/03 01:49:11;;;;;;;9.67;6.77;;;;;;;19.75;74.31;97461.28;5069877;28;20206;-77
2023/09/03 01:52:12;;;;;;;9.10;6.97;;;;;;;19.79;74.30;97469.75;5053513;28;20192;-80
2023/09/03 01:54:48;;;;;;;8.87;6.50;;;;;;;20.03;73.67;97473.19;5087821;28;20219;-80
2023/09/03 01:57:28;;;;;;;8.53;6.90;;;;;;;19.92;73.85;97467.91;5053516;28;20188;-75
2023/09/03 01:59:58;;;;;;;8.53;6.57;;;;;;;19.79;73.97;97454.00;5087954;28;20284;-78
2023/09/03 02:02:27;;;;;;;11.03;7.70;;;;;;;19.85;73.97;97461.41;5053250;28;20257;-79
2023/09/03 02:04:55;;;;;;;9.97;7.23;;;;;;;19.94;73.84;97463.34;5070535;28;20196;-78
2023/09/03 02:07:24;;;;;;;9.20;7.57;;;;;;;19.87;74.43;97459.50;5087691;28;20656;-77
2023/09/03 02:09:52;;;;;;;9.10;6.87;;;;;;;19.97;74.06;97452.63;5069976;28;20743;-77
2023/09/03 02:12:23;;;;;;;12.07;7.60;;;;;;;20.01;73.58;97464.56;5069400;28;20192;-77
2023/09/03 02:14:53;;;;;;;11.83;7.17;;;;;;;20.16;73.27;97461.59;5087484;28;20224;-78
2023/09/03 02:17:21;;;;;;;10.30;7.03;;;;;;;20.12;72.74;97451.41;5087741;28;20289;-79
2023/09/03 02:19:53;;;;;;;11.07;7.73;;;;;;;20.52;71.39;97468.44;5069493;28;20284;-79
2023/09/03 02:22:39;;;;;;;9.70;6.70;;;;;;;20.57;71.07;97463.63;5058572;28;20211;-76
2023/09/03 02:25:11;;;;;;;14.30;7.83;;;;;;;20.20;71.71;97444.63;5069243;28;20261;-78
2023/09/03 02:27:38;;;;;;;8.80;7.30;;;;;;;19.96;72.82;97450.94;5087437;28;20186;-75
2023/09/03 02:30:06;;;;;;;9.03;6.77;;;;;;;19.98;72.68;97430.63;5052538;28;20342;-79
2023/09/03 02:32:34;;;;;;;12.33;6.57;;;;;;;20.31;72.27;97456.13;5068886;28;20288;-78
2023/09/03 02:35:03;;;;;;;11.10;7.33;;;;;;;20.41;71.32;97449.19;5069091;28;20227;-78
2023/09/03 02:37:31;;;;;;;8.03;6.60;;;;;;;20.65;70.79;97465.69;5087231;28;20874;-79
2023/09/03 02:40:00;;;;;;;7.57;6.73;;;;;;;20.49;70.88;97458.16;5069255;28;20592;-80
2023/09/03 02:42:29;;;;;;;9.60;7.27;;;;;;;20.63;70.59;97457.06;5069625;28;20633;-79
2023/09/03 02:44:56;;;;;;;11.27;6.60;;;;;;;20.57;70.59;97460.16;5052342;28;20188;-80
2023/09/03 02:47:23;;;;;;;9.73;7.03;;;;;;;20.52;70.72;97457.06;5068948;28;20254;-75
2023/09/03 02:49:51;;;;;;;8.43;6.50;;;;;;;20.34;71.75;97455.91;5086555;28;20200;-78
2023/09/03 02:52:18;;;;;;;9.23;6.93;;;;;;;20.58;70.81;97459.22;5087207;28;20223;-79
2023/09/03 02:54:45;;;;;;;7.87;5.87;;;;;;;20.69;70.09;97461.84;5068884;28;20209;-79
2023/09/03 02:57:13;;;;;;;8.53;6.77;;;;;;;20.52;70.07;97439.50;5068807;28;20675;-76
2023/09/03 02:59:44;;;;;;;8.97;6.53;;;;;;;20.60;70.18;97463.41;5068714;28;20583;-79
2023/09/03 03:02:13;;;;;;;7.23;6.13;;;;;;;20.50;70.05;97451.09;5052304;28;20195;-79
2023/09/03 03:04:42;;;;;;;8.90;6.60;;;;;;;20.19;71.00;97471.03;5036233;28;20271;-78
2023/09/03 03:07:09;;;;;;;7.23;6.33;;;;;;;19.76;73.05;97449.84;5052039;28;20260;-77
2023/09/03 03:09:39;;;;;;;10.13;6.83;;;;;;;19.51;74.50;97464.91;5068888;28;20675;-79
2023/09/03 03:12:06;;;;;;;12.07;7.20;;;;;;;19.61;74.42;97471.16;5086546;28;20200;-79
2023/09/03 03:14:34;;;;;;;10.07;7.43;;;;;;;19.46;75.30;97471.34;5068597;28;20282;-77
2023/09/03 03:17:01;;;;;;;8.43;6.60;;;;;;;19.62;74.78;97459.72;5051977;28;20202;-80
2023/09/03 03:19:30;;;;;;;10.17;6.17;;;;;;;19.61;74.63;97469.38;5069001;28;20219;-77
2023/09/03 03:21:59;;;;;;;8.83;6.20;;;;;;;19.74;74.30;97456.97;5068821;28;20207;-77
2023/09/03 03:24:28;;;;;;;7.80;5.97;;;;;;;19.92;72.78;97457.38;5051901;28;20629;-78
2023/09/03 03:26:57;;;;;;;8.17;6.40;;;;;;;19.93;72.78;97456.41;5069283;28;20191;-78
2023/09/03 03:29:28;;;;;;;8.50;6.70;;;;;;;19.67;73.30;97445.25;5068521;28;20265;-80
2023/09/03 03:31:56;;;;;;;8.67;7.03;;;;;;;19.51;74.59;97459.66;5086960;28;20219;-79
2023/09/03 03:34:25;;;;;;;8.77;7.03;;;;;;;19.32;75.45;97455.75;5068531;28;20220;-78
2023/09/03 03:36:56;;;;;;;11.47;7.43;;;;;;;19.24;75.86;97449.38;5068729;28;20184;-79
2023/09/03 03:39:24;;;;;;;10.43;7.97;;;;;;;19.27;75.44;97457.03;5056074;28;20208;-80
2023/09/03 03:41:52;;;;;;;11.13;8.10;;;;;;;19.27;74.87;97436.84;5052232;28;20730;-80
2023/09/03 03:44:21;;;;;;;11.30;9.07;;;;;;;19.40;74.52;97456.06;5070881;28;20193;-79
2023/09/03 03:46:48;;;;;;;10.27;8.63;;;;;;;19.25;74.53;97454.50;5070277;28;20185;-78
2023/09/03 03:49:16;;;;;;;11.40;8.60;;;;;;;19.20;74.93;97443.53;5069507;28;20186;-78
2023/09/03 03:51:44;;;;;;;13.03;8.40;;;;;;;19.47;74.22;97459.88;5070483;28;20192;-80
2023/09/03 03:54:11;;;;;;;11.73;8.20;;;;;;;19.68;73.27;97456.63;5068974;28;20286;-79
2023/09/03 03:56:40;;;;;;;9.80;7.20;;;;;;;19.94;72.35;97456.31;5071456;28;20196;-75
2023/09/03 03:59:07;;;;;;;11.80;8.57;;;;;;;20.13;71.52;97461.00;5073340;28;20197;-78
2023/09/03 04:01:34;;;;;;;9.00;7.27;;;;;;;20.04;70.33;97409.94;5078482;28;20210;-80
2023/09/03 04:04:06;;;;;;;8.80;7.57;;;;;;;20.38;70.05;97455.50;5055636;28;20193;-79
2023/09/03 04:06:34;;;;;;;10.30;7.93;;;;;;;20.27;70.54;97455.53;5070216;28;20250;-79
2023/09/03 04:09:02;;;;;;;12.83;7.77;;;;;;;20.48;69.27;97453.84;5068443;28;20231;-78
2023/09/03 04:11:30;;;;;;;8.43;7.20;;;;;;;20.60;68.52;97434.47;5068231;28;20198;-79
2023/09/03 04:13:57;;;;;;;12.67;7.83;;;;;;;20.91;67.83;97460.00;5068271;28;20222;-80
2023/09/03 04:16:25;;;;;;;8.47;7.10;;;;;;;21.09;67.04;97444.53;5051468;28;20260;-79
2023/09/03 04:18:53;;;;;;;10.80;7.40;;;;;;;20.97;67.34;97454.25;5070006;28;20285;-80
2023/09/03 04:21:23;;;;;;;8.60;7.00;;;;;;;21.16;66.52;97452.78;5068232;28;20189;-80
2023/09/03 04:23:51;;;;;;;9.40;6.43;;;;;;;21.02;66.46;97453.88;5068473;28;20206;-77
2023/09/03 04:26:18;;;;;;;10.83;6.77;;;;;;;20.77;66.79;97457.63;5069170;28;20182;-78
2023/09/03 04:28:52;;;;;;;9.90;6.97;;;;;;;20.93;66.30;97457.25;5068054;28;20223;-78
2023/09/03 04:31:19;;;;;;;10.97;6.63;;;;;;;20.91;66.98;97454.75;5069402;28;20190;-80
2023/09/03 04:33:47;;;;;;;7.97;6.43;;;;;;;21.19;66.17;97445.47;5067694;28;20232;-78
2023/09/03 04:36:16;;;;;;;8.43;6.13;;;;;;;21.37;65.58;97454.47;5068235;28;20206;-79
2023/09/03 04:38:43;;;;;;;7.67;6.63;;;;;;;21.76;64.43;97450.34;5067731;28;20570;-75
2023/09/03 04:41:13;;;;;;;10.00;6.17;;;;;;;21.97;63.81;97447.75;5074231;28;20221;-75
2023/09/03 04:44:08;;;;;;;8.40;6.57;;;;;;;22.12;63.44;97447.25;5066974;28;20192;-80
2023/09/03 04:46:48;;;;;;;9.50;5.73;;;;;;;21.97;63.34;97442.47;5071083;28;20668;-79
2023/09/03 04:49:16;;;;;;;7.10;5.53;;;;;;;21.87;64.12;97447.66;5053934;28;20183;-80
2023/09/03 04:51:44;;;;;;;10.60;6.23;;;;;;;21.82;64.17;97439.31;5070956;28;20278;-79
2023/09/03 04:54:12;;;;;;;7.47;5.53;;;;;;;20.94;67.46;97443.94;5054368;28;20224;-78
2023/09/03 04:56:40;;;;;;;8.90;5.37;;;;;;;21.16;67.15;97442.25;5089099;28;20186;-80
2023/09/03 04:59:10;;;;;;;8.47;5.60;;;;;;;21.08;68.32;97444.66;5070772;28;20187;-79
2023/09/03 05:01:39;;;;;;;7.93;5.60;;;;;;;20.67;69.89;97437.44;5070818;28;20272;-79
2023/09/03 05:04:07;;;;;;;7.23;6.00;;;;;;;20.80;68.76;97438.97;5070507;28;20290;-79
2023/09/03 05:06:35;;;;;;;10.13;6.60;;;;;;;20.71;69.48;97426.53;5071402;28;20628;-80
2023/09/03 05:09:03;;;;;;;6.50;5.40;;;;;;;21.04;69.10;97436.19;5090831;28;20684;-80
2023/09/03 05:11:31;;;;;;;8.77;6.07;;;;;;;21.07;68.30;97406.94;5070685;28;20190;-79
2023/09/03 05:13:59;;;;;;;7.07;5.53;;;;;;;21.24;68.91;97432.75;5070313;28;20211;-79
2023/09/03 05:16:28;;;;;;;8.17;5.70;;;;;;;21.14;69.49;97425.72;5053701;28;20200;-79
2023/09/03 05:18:57;;;;;;;6.00;5.40;;;;;;;21.11;70.48;97423.34;5053804;28;20195;-79
2023/09/03 05:21:25;;;;;;;7.03;5.23;;;;;;;21.34;69.16;97433.66;5053936;28;20293;-80
2023/09/03 05:23:52;;;;;;;5.83;5.13;;;;;;;21.68;68.24;97437.78;5070717;28;20662;-81
2023/09/03 05:26:19;;;;;;;8.57;5.57;;;;;;;21.98;67.05;97439.69;5088280;28;20260;-80
2023/09/03 05:28:47;;;;;;;7.27;5.37;;;;;;;21.89;66.84;97435.19;5072022;28;20202;-78
2023/09/03 05:31:14;;;;;;;7.73;5.63;;;;;;;21.87;67.39;97434.47;5070237;28;20192;-78
2023/09/03 05:33:42;;;;;;;6.23;5.47;;;;;;;21.72;67.49;97425.22;5069990;28;20650;-78
2023/09/03 05:36:11;;;;;;;6.33;5.47;;;;;;;22.11;66.53;97432.41;5053801;28;20206;-80
2023/09/03 05:38:42;;;;;;;8.07;5.57;;;;;;;22.31;65.62;97439.44;5036441;28;20202;-79
2023/09/03 05:41:10;;;;;;;6.03;4.97;;;;;;;22.39;64.82;97444.88;5070514;28;20750;-79
2023/09/03 05:43:38;;;;;;;5.40;4.90;;;;;;;22.81;63.82;97439.50;5087975;28;20588;-75
2023/09/03 05:46:05;;;;;;;7.57;5.23;;;;;;;23.35;62.81;97450.41;5053730;28;20185;-79
2023/09/03 05:48:34;;;;;;;8.67;5.73;;;;;;;23.39;62.69;97451.81;5069872;28;20212;-77
2023/09/03 05:51:03;;;;;;;6.47;5.20;;;;;;;23.58;60.72;97441.25;5053231;28;20682;-78
2023/09/03 05:53:33;;;;;;;6.87;5.20;;;;;;;23.92;60.00;97450.41;5070029;28;20193;-78
2023/09/03 05:56:09;;;;;;;7.17;5.40;;;;;;;23.83;60.10;97448.59;5069217;28;20700;-74
2023/09/03 05:58:40;;;;;;;7.60;5.20;;;;;;;23.97;59.60;97442.84;5069759;28;20193;-79
2023/09/03 06:01:10;;;;;;;5.67;5.03;;;;;;;24.12;59.20;97444.09;5069094;28;20197;-79
2023/09/03 06:03:39;;;;;;;6.50;5.57;;;;;;;24.03;59.71;97441.44;5069594;28;20186;-78
2023/09/03 06:06:10;;;;;;;8.97;5.93;;;;;;;24.25;59.02;97447.25;5069332;28;20186;-78
2023/09/03 06:08:38;;;;;;;7.30;5.50;;;;;;;24.29;58.73;97453.09;5052603;28;20193;-79
2023/09/03 06:11:08;;;;;;;5.90;5.30;;;;;;;24.27;58.66;97448.94;5087830;28;20198;-79
2023/09/03 06:13:35;;;;;;;7.83;6.07;;;;;;;24.32;57.98;97433.47;5087117;28;20198;-80
2023/09/03 06:16:02;;;;;;;8.23;5.93;;;;;;;24.46;57.50;97448.88;5087658;28;20213;-80
2023/09/03 06:18:30;;;;;;;12.00;8.93;;;;;;;24.39;57.33;97455.72;5086908;28;20190;-80
2023/09/03 06:20:59;;;;;;;7.30;6.60;;;;;;;24.43;57.58;97454.44;5068716;28;20205;-78
2023/09/03 06:23:26;;;;;;;7.33;6.10;;;;;;;24.29;57.64;97441.69;5086987;28;20244;-75
2023/09/03 06:25:54;;;;;;;8.47;6.83;;;;;;;24.54;56.98;97447.16;5086902;28;20205;-78
2023/09/03 06:28:22;;;;;;;7.97;6.17;;;;;;;24.89;56.43;97451.75;5053012;28;20193;-80
2023/09/03 06:30:52;;;;;;;7.70;6.20;;;;;;;24.36;57.43;97437.47;5068787;28;20183;-79
2023/09/03 06:33:19;;;;;;;7.20;6.20;;;;;;;23.84;58.84;97426.47;5087299;28;20184;-78
2023/09/03 06:35:46;;;;;;;7.73;6.20;;;;;;;24.34;58.75;97460.63;5068895;28;20314;-79
2023/09/03 06:38:14;;;;;;;9.30;5.90;;;;;;;24.56;57.50;97444.34;5087379;28;20207;-80
2023/09/03 06:40:43;;;;;;;8.33;6.30;;;;;;;24.98;56.83;97453.47;5052259;28;20211;-80
2023/09/03 06:43:16;;;;;;;7.93;5.80;;;;;;;24.98;55.78;97456.13;5051878;28;20197;-78
2023/09/03 06:45:46;;;;;;;7.43;5.80;;;;;;;25.20;55.59;97447.78;5087093;28;20200;-74
2023/09/03 06:48:14;;;;;;;8.23;6.10;;;;;;;25.16;55.48;97427.84;5068147;28;20556;-77
2023/09/03 06:50:43;;;;;;;7.57;5.27;;;;;;;25.29;54.82;97449.50;5051477;28;20718;-75
2023/09/03 06:53:11;;;;;;;7.83;6.50;;;;;;;25.41;54.79;97452.81;5086424;28;20192;-79
2023/09/03 06:55:38;;;;;;;7.30;5.70;;;;;;;25.56;54.41;97459.22;5068415;28;20292;-79
2023/09/03 06:58:07;;;;;;;6.50;5.30;;;;;;;25.34;54.23;97436.63;5086401;28;20188;-77
2023/09/03 07:00:35;;;;;;;6.70;5.20;;;;;;;25.43;53.46;97437.59;5086567;28;20242;-74
2023/09/03 07:03:03;;;;;;;7.80;5.37;;;;;;;25.87;53.13;97446.38;5068684;28;20188;-74
2023/09/03 07:05:30;;;;;;;6.10;5.50;;;;;;;26.12;52.25;97450.91;5086081;28;20204;-75
2023/09/03 07:07:59;;;;;;;9.20;5.57;;;;;;;26.24;51.76;97445.19;5067378;28;20735;-79
2023/09/03 07:10:27;;;;;;;6.43;5.07;;;;;;;26.40;52.03;97450.56;5058539;28;20196;-76
2023/09/03 07:12:55;;;;;;;5.37;4.73;;;;;;;26.51;51.41;97449.47;5031781;28;20205;-82
2023/09/03 07:15:23;;;;;;;7.07;5.20;;;;;;;26.55;51.00;97440.19;5035361;28;20227;-77
2023/09/03 07:17:51;;;;;;;6.80;4.67;;;;;;;26.80;49.52;97439.34;5030241;28;20557;-75
2023/09/03 07:20:18;;;;;;;6.50;4.97;;;;;;;27.13;49.21;97446.41;5085184;28;20196;-75
2023/09/03 07:22:45;;;;;;;5.33;4.80;;;;;;;26.87;48.46;97440.38;5067888;28;20721;-76
2023/09/03 07:25:13;;;;;;;8.97;6.17;;;;;;;26.81;48.29;97435.66;5085588;28;20189;-72
2023/09/03 07:27:47;;;;;;;5.70;4.57;;;;;;;26.94;47.87;97451.16;5067103;28;20201;-75
2023/09/03 07:30:18;;;;;;;8.30;5.47;;;;;;;27.27;48.05;97445.78;5051215;28;20209;-75
2023/09/03 07:32:46;;;;;;;6.33;4.70;;;;;;;26.88;45.86;97372.91;5067450;28;20192;-74
2023/09/03 07:35:18;;;;;;;6.13;4.47;;;;;;;27.44;44.42;97444.00;5090208;28;20586;-75
2023/09/03 07:37:47;;;;;;;4.83;3.43;;;;;;;27.33;43.67;97426.50;5072303;28;20184;-81
2023/09/03 07:40:16;;;;;;;6.33;3.60;;;;;;;27.55;42.78;97434.88;5088005;28;20278;-77
2023/09/03 07:42:49;;;;;;;8.47;3.83;;;;;;;27.64;42.64;97424.03;5106320;28;20224;-79
2023/09/03 07:45:17;;;;;;;7.47;3.60;;;;;;;27.91;41.03;97417.53;5086007;28;20187;-74
2023/09/03 07:47:44;;;;;;;5.43;3.27;;;;;;;28.00;41.00;97440.53;5058945;28;20292;-76
2023/09/03 07:50:11;;;;;;;5.67;4.00;;;;;;;28.09;40.30;97448.34;5065747;28;20615;-75
2023/09/03 07:52:39;;;;;;;4.77;3.10;;;;;;;28.08;39.88;97444.03;5065768;28;20193;-76
2023/09/03 07:55:07;;;;;;;5.07;3.13;;;;;;;28.19;39.00;97440.19;5065944;28;20220;-75
2023/09/03 07:57:34;;;;;;;4.13;3.10;;;;;;;28.11;38.96;97438.34;5073552;28;20193;-77
2023/09/03 08:00:03;;;;;;;3.67;3.07;;;;;;;27.86;37.99;97423.34;5079796;28;20269;-74
2023/09/03 08:02:38;;;;;;;4.43;3.33;;;;;;;28.12;36.72;97447.16;5067534;28;20712;-74
2023/09/03 08:05:06;;;;;;;3.43;2.80;;;;;;;28.24;36.23;97440.47;5054411;28;20201;-74
2023/09/03 08:07:35;;;;;;;5.17;3.87;;;;;;;28.30;36.40;97439.78;5085706;28;20205;-74
2023/09/03 08:10:02;;;;;;;6.33;3.03;;;;;;;28.69;36.34;97443.38;5086950;28;20242;-78
2023/09/03 08:12:30;;;;;;;4.00;3.60;;;;;;;28.79;35.68;97443.19;5067885;28;20197;-75
2023/09/03 08:14:58;;;;;;;5.13;3.07;;;;;;;28.79;35.06;97436.00;5085643;28;20212;-75
2023/09/03 08:17:26;;;;;;;3.80;2.80;;;;;;;28.89;35.72;97439.28;5086072;28;20598;-76
2023/09/03 08:19:54;;;;;;;4.37;2.90;;;;;;;28.75;35.46;97447.16;5067566;28;20260;-76
2023/09/03 08:22:22;;;;;;;3.57;3.10;;;;;;;28.95;34.78;97435.91;5084341;28;20189;-76
2023/09/03 08:24:49;;;;;;;3.37;3.03;;;;;;;29.02;34.62;97437.91;5084768;28;20258;-76
2023/09/03 08:27:16;;;;;;;5.47;2.73;;;;;;;29.04;36.19;97441.22;5070505;28;20284;-74
2023/09/03 08:29:43;;;;;;;3.87;3.00;;;;;;;28.85;35.37;97437.94;5087502;28;20242;-77
2023/09/03 08:32:11;;;;;;;6.43;3.50;;;;;;;28.64;34.64;97432.41;5085064;28;20265;-76
2023/09/03 08:34:39;;;;;;;4.03;2.67;;;;;;;28.74;34.39;97429.53;5053884;28;20800;-79
2023/09/03 08:37:07;;;;;;;3.83;2.80;;;;;;;28.70;34.73;97434.38;5088130;28;20183;-79
2023/09/03 08:39:37;;;;;;;4.37;3.20;;;;;;;28.47;35.31;97422.75;5070176;28;20200;-79
2023/09/03 08:42:06;;;;;;;3.50;3.20;;;;;;;28.70;35.06;97422.88;5088040;28;20212;-78
2023/09/03 08:44:36;;;;;;;5.53;3.00;;;;;;;28.83;35.43;97428.50;5088719;28;20203;-79
2023/09/03 08:47:10;;;;;;;4.27;3.03;;;;;;;28.75;34.29;97401.84;5071674;28;20214;-79
2023/09/03 08:49:40;;;;;;;3.27;2.83;;;;;;;29.03;35.89;97405.69;5070147;28;20189;-79
2023/09/03 08:52:10;;;;;;;5.10;3.17;;;;;;;28.93;34.43;97421.91;5070563;28;21112;-77
2023/09/03 08:54:38;;;;;;;5.07;3.47;;;;;;;28.98;34.70;97406.22;5070444;28;20197;-77
2023/09/03 08:57:05;;;;;;;3.50;3.00;;;;;;;29.06;34.60;97413.34;5068478;28;20574;-78
2023/09/03 08:59:33;;;;;;;4.57;2.83;;;;;;;28.84;34.90;97414.97;5077734;28;20204;-78
2023/09/03 09:02:01;;;;;;;5.03;2.77;;;;;;;28.60;35.03;97406.25;5080286;28;20321;-79
2023/09/03 09:04:30;;;;;;;3.37;2.73;;;;;;;28.61;36.03;97397.25;5072106;28;20654;-79
2023/09/03 09:06:59;;;;;;;4.57;2.87;;;;;;;28.53;34.73;97399.91;5049856;28;20185;-79
2023/09/03 09:09:29;;;;;;;3.50;2.70;;;;;;;28.36;35.30;97396.47;5045442;28;20265;-78
2023/09/03 09:12:22;;;;;;;3.97;2.80;;;;;;;28.67;34.79;97399.22;5088092;28;20321;-80
2023/09/03 09:14:55;;;;;;;3.10;2.70;;;;;;;28.78;35.25;97394.34;5069480;28;20283;-78
2023/09/03 09:17:22;;;;;;;5.43;3.03;;;;;;;28.89;35.04;97393.94;5070411;28;20206;-78
2023/09/03 09:19:49;;;;;;;7.80;3.43;;;;;;;29.14;35.00;97377.78;5088089;28;20206;-74
2023/09/03 09:22:17;;;;;;;4.27;3.20;;;;;;;28.96;35.12;97389.56;5070156;28;20692;-76
2023/09/03 09:24:47;;;;;;;4.17;3.03;;;;;;;28.85;34.85;97411.28;5070348;28;20284;-79
2023/09/03 09:27:16;;;;;;;3.23;2.93;;;;;;;28.70;35.28;97407.72;5087999;28;20187;-79
2023/09/03 09:29:44;;;;;;;4.73;2.93;;;;;;;28.60;35.03;97392.94;5087960;28;20188;-79
2023/09/03 09:32:23;;;;;;;4.10;3.17;;;;;;;28.54;35.07;97401.59;5087533;28;20664;-75
2023/09/03 09:34:50;;;;;;;5.53;2.83;;;;;;;27.96;36.39;97407.25;5087729;28;20224;-79
2023/09/03 09:37:18;;;;;;;4.90;2.97;;;;;;;27.91;36.66;97396.22;5087134;28;20195;-79
2023/09/03 09:39:49;;;;;;;4.30;3.17;;;;;;;27.62;37.06;97393.25;5087754;28;20606;-77
2023/09/03 09:42:19;;;;;;;6.03;3.20;;;;;;;27.67;36.74;97382.97;5069487;28;20225;-78
2023/09/03 09:44:53;;;;;;;3.90;3.20;;;;;;;27.80;35.86;97383.28;5070012;28;20193;-78
2023/09/03 09:47:22;;;;;;;4.60;2.87;;;;;;;28.04;35.57;97378.78;5069576;28;20196;-78
2023/09/03 09:49:49;;;;;;;4.83;2.93;;;;;;;28.45;34.28;97370.63;5087156;28;20192;-77
2023/09/03 09:52:18;;;;;;;4.50;2.90;;;;;;;28.64;34.26;97363.09;5070043;28;20185;-78
2023/09/03 09:54:48;;;;;;;5.50;2.77;;;;;;;28.89;34.23;97369.13;5087874;28;20181;-78
2023/09/03 09:57:20;;;;;;;3.07;2.50;;;;;;;28.91;33.76;97346.56;5069038;28;20670;-78
2023/09/03 09:59:52;;;;;;;4.33;2.67;;;;;;;28.78;33.56;97345.50;5087462;28;20192;-79
2023/09/03 10:02:21;;;;;;;2.97;2.50;;;;;;;28.83;34.22;97353.81;5069098;28;20185;-76
2023/09/03 10:04:51;;;;;;;2.87;2.43;;;;;;;28.74;33.85;97355.69;5069642;28;20250;-78
2023/09/03 10:07:19;;;;;;;3.43;2.67;;;;;;;28.83;33.59;97357.31;5069118;28;20253;-77
2023/09/03 10:09:46;;;;;;;4.73;3.20;;;;;;;28.66;34.10;97371.75;5069510;28;20288;-77
2023/09/03 10:12:14;;;;;;;2.93;2.40;;;;;;;28.81;34.24;97359.31;5087453;28;20209;-79
2023/09/03 10:14:42;;;;;;;2.93;2.60;;;;;;;28.92;33.42;97358.91;5087176;28;20196;-76
2023/09/03 10:17:10;;;;;;;4.53;2.63;;;;;;;28.61;33.40;97344.78;5087249;28;20722;-76
2023/09/03 10:19:50;;;;;;;4.23;2.70;;;;;;;28.76;32.20;97335.03;5087016;28;20219;-78
2023/09/03 10:22:20;;;;;;;3.93;2.60;;;;;;;29.23;32.71;97345.56;5069651;28;20195;-77
2023/09/03 10:24:54;;;;;;;3.23;2.20;;;;;;;29.17;33.18;97342.78;5069184;28;20192;-78
2023/09/03 10:27:27;;;;;;;5.07;2.90;;;;;;;29.59;33.61;97346.56;5087824;28;20297;-77
2023/09/03 10:29:57;;;;;;;3.00;2.70;;;;;;;29.37;33.25;97326.09;5086987;28;20691;-76
2023/09/03 10:32:27;;;;;;;3.13;2.73;;;;;;;29.44;34.29;97337.72;5067100;28;20196;-79
2023/09/03 10:34:56;;;;;;;2.80;2.50;;;;;;;29.19;32.58;97327.41;5082622;28;20191;-78
2023/09/03 10:37:37;;;;;;;3.67;2.67;;;;;;;28.87;34.67;97326.59;5069401;28;20221;-78
2023/09/03 10:40:19;;;;;;;3.50;3.20;;;;;;;28.44;35.94;97324.50;5076027;28;20663;-76
2023/09/03 10:42:51;;;;;;;3.97;2.90;;;;;;;28.69;34.71;97325.22;5068269;28;20744;-75
2023/09/03 10:45:20;;;;;;;2.97;2.67;;;;;;;28.47;34.87;97325.97;5086707;28;20648;-78
2023/09/03 10:48:03;;;;;;;3.20;2.90;;;;;;;28.33;34.57;97332.06;5085773;28;20600;-78
2023/09/03 10:50:50;;;;;;;2.40;2.17;;;;;;;28.04;34.38;97319.34;5086366;28;20276;-80
2023/09/03 10:53:38;;;;;;;4.73;3.03;;;;;;;28.22;34.96;97324.44;5086756;28;20192;-76
2023/09/03 10:56:17;;;;;;;2.70;2.50;;;;;;;28.54;34.30;97306.44;5066252;28;20220;-79
2023/09/03 10:58:57;;;;;;;2.90;2.60;;;;;;;28.95;33.75;97305.22;5066163;28;20181;-75
2023/09/03 11:01:32;;;;;;;2.60;2.23;;;;;;;28.77;32.39;97302.00;5073278;28;20192;-78
2023/09/03 11:04:02;;;;;;;3.57;2.20;;;;;;;29.04;32.57;97313.19;5085700;28;20203;-77
2023/09/03 11:06:34;;;;;;;2.83;2.50;;;;;;;28.76;33.75;97307.53;5080244;28;20288;-79
2023/09/03 11:09:06;;;;;;;2.87;2.57;;;;;;;28.87;33.40;97307.94;5066868;28;20208;-79
2023/09/03 11:11:35;;;;;;;3.00;2.67;;;;;;;28.59;32.78;97264.16;5067548;28;20261;-77
2023/09/03 11:14:07;;;;;;;4.67;3.40;;;;;;;28.99;33.83;97295.03;5066060;28;20199;-77
2023/09/03 11:16:37;;;;;;;2.90;2.60;;;;;;;29.20;33.83;97271.22;5050935;28;20219;-76
2023/09/03 11:19:07;;;;;;;3.53;2.50;;;;;;;29.76;31.74;97301.88;5065370;28;20191;-79
2023/09/03 11:21:37;;;;;;;2.50;2.30;;;;;;;29.83;31.65;97288.63;5085950;28;20199;-76
2023/09/03 11:24:08;;;;;;;3.63;2.60;;;;;;;30.19;31.89;97290.38;5085698;28;20196;-77
2023/09/03 11:26:37;;;;;;;3.30;2.67;;;;;;;30.37;31.15;97298.03;5092856;28;20192;-76
2023/09/03 11:29:20;;;;;;;3.17;2.83;;;;;;;30.31;31.14;97277.41;5088281;28;20566;-75
2023/09/03 11:31:48;;;;;;;4.70;3.23;;;;;;;30.51;31.55;97284.63;5088878;28;20195;-78
2023/09/03 11:34:19;;;;;;;2.60;2.40;;;;;;;30.31;31.70;97274.72;5106747;28;20184;-77
2023/09/03 11:36:51;;;;;;;2.50;2.30;;;;;;;29.83;31.37;97270.78;5106740;28;20262;-75
2023/09/03 11:39:19;;;;;;;3.00;2.33;;;;;;;29.30;32.17;97273.63;5107219;28;20188;-77
2023/09/03 11:41:46;;;;;;;2.57;2.20;;;;;;;28.82;32.33;97254.31;5088213;28;20306;-76
2023/09/03 11:44:14;;;;;;;3.23;2.20;;;;;;;28.83;32.18;97274.63;5088723;28;20199;-76
2023/09/03 11:47:02;;;;;;;2.53;2.27;;;;;;;28.79;32.04;97269.84;5106253;28;20271;-76